createdAt,value
2022-10-31T00:04:32.081Z,27.40
2022-10-31T00:09:39.462Z,28.00
2022-10-31T00:14:44.204Z,32.10
2022-10-31T00:19:49.007Z,27.23
2022-10-31T00:24:56.373Z,23.70
2022-10-31T00:30:01.107Z,24.07
2022-10-31T00:35:08.711Z,26.03
2022-10-31T00:40:16.518Z,28.40
2022-10-31T00:45:21.289Z,29.43
2022-10-31T00:50:26.097Z,21.17
2022-10-31T00:55:33.794Z,23.47
2022-10-31T01:00:39.356Z,25.13
2022-10-31T01:05:44.210Z,27.50
2022-10-31T01:11:09.642Z,27.67
2022-10-31T01:16:16.811Z,23.93
2022-10-31T01:21:23.597Z,26.33
2022-10-31T01:26:32.948Z,24.07
2022-10-31T01:31:40.076Z,26.13
2022-10-31T01:36:45.994Z,27.70
2022-10-31T01:41:55.666Z,26.53
2022-10-31T01:47:07.230Z,30.53
2022-10-31T01:52:16.840Z,29.07
2022-10-31T01:57:25.523Z,22.27
2022-10-31T02:02:34.445Z,22.23
2022-10-31T02:07:46.618Z,23.80
2022-10-31T02:12:56.139Z,25.10
2022-10-31T02:18:01.883Z,23.53
2022-10-31T02:23:37.716Z,25.47
2022-10-31T02:29:09.462Z,20.83
2022-10-31T02:34:23.062Z,24.27
2022-10-31T02:39:32.962Z,23.80
2022-10-31T02:44:43.567Z,22.37
2022-10-31T02:49:57.583Z,25.17
2022-10-31T02:55:02.514Z,21.80
2022-10-31T03:00:10.740Z,20.57
2022-10-31T03:05:41.604Z,18.57
2022-10-31T03:10:51.587Z,20.63
2022-10-31T03:16:04.639Z,19.20
2022-10-31T03:21:16.381Z,19.23
2022-10-31T03:26:23.668Z,22.37
2022-10-31T03:31:33.380Z,21.90
2022-10-31T03:36:43.620Z,22.53
2022-10-31T03:41:54.794Z,20.83
2022-10-31T03:47:00.011Z,20.77
2022-10-31T03:52:19.543Z,19.07
2022-10-31T03:57:31.371Z,26.37
2022-10-31T04:02:41.951Z,18.73
2022-10-31T04:07:53.197Z,17.73
2022-10-31T04:13:05.237Z,17.03
2022-10-31T04:18:21.263Z,20.13
2022-10-31T04:23:30.113Z,18.80
2022-10-31T04:28:35.458Z,17.63
2022-10-31T04:33:40.933Z,18.03
2022-10-31T04:38:48.690Z,14.17
2022-10-31T04:44:13.868Z,20.87
2022-10-31T04:49:18.833Z,16.93
2022-10-31T04:54:26.222Z,16.70
2022-10-31T04:59:54.098Z,15.00
2022-10-31T05:05:01.658Z,14.07
2022-10-31T05:10:11.488Z,16.27
2022-10-31T05:15:17.660Z,14.67
2022-10-31T05:20:55.029Z,16.40
2022-10-31T05:26:25.559Z,18.47
2022-10-31T05:31:32.198Z,16.53
2022-10-31T05:36:37.126Z,13.97
2022-10-31T05:41:51.913Z,15.70
2022-10-31T05:47:04.161Z,13.63
2022-10-31T05:52:27.513Z,13.13
2022-10-31T05:57:45.609Z,16.20
2022-10-31T06:02:50.435Z,19.00
2022-10-31T06:08:15.275Z,15.93
2022-10-31T06:13:25.958Z,16.80
2022-10-31T06:18:45.534Z,16.83
2022-10-31T06:23:51.133Z,14.20
2022-10-31T06:29:24.747Z,14.67
2022-10-31T06:34:39.593Z,14.07
2022-10-31T06:39:44.640Z,15.60
2022-10-31T06:45:01.721Z,13.53
2022-10-31T06:50:26.463Z,12.27
2022-10-31T06:55:33.122Z,18.40
2022-10-31T07:00:41.749Z,14.60
2022-10-31T07:05:47.019Z,13.73
2022-10-31T07:10:57.185Z,19.00
2022-10-31T07:16:15.674Z,15.20
2022-10-31T07:21:24.264Z,16.17
2022-10-31T07:26:30.719Z,17.40
2022-10-31T07:31:38.249Z,18.40
2022-10-31T07:36:50.275Z,18.43
2022-10-31T07:41:55.315Z,12.73
2022-10-31T07:47:02.833Z,15.73
2022-10-31T07:52:26.631Z,14.20
2022-10-31T07:58:03.017Z,12.40
2022-10-31T08:03:12.185Z,16.63
2022-10-31T08:08:38.344Z,12.87
2022-10-31T08:13:48.339Z,15.63
2022-10-31T08:18:57.691Z,15.90
2022-10-31T08:24:05.987Z,12.20
2022-10-31T08:29:11.547Z,10.17
2022-10-31T08:34:24.030Z,13.77
2022-10-31T08:39:48.980Z,13.20
2022-10-31T08:44:53.955Z,9.53
2022-10-31T08:50:03.108Z,12.20
2022-10-31T08:55:09.684Z,16.73
2022-10-31T09:00:33.397Z,9.80
2022-10-31T09:05:47.896Z,12.20
2022-10-31T09:10:53.194Z,11.57
2022-10-31T09:16:15.552Z,12.43
2022-10-31T09:21:22.981Z,10.43
2022-10-31T09:26:28.225Z,7.27
2022-10-31T09:31:53.362Z,11.07
2022-10-31T09:37:11.091Z,10.43
2022-10-31T09:42:44.957Z,10.45
2022-10-31T09:48:11.223Z,12.05
2022-10-31T09:53:31.970Z,14.23
2022-10-31T09:58:43.587Z,11.32
2022-10-31T10:03:51.946Z,11.82
2022-10-31T10:09:30.013Z,12.48
2022-10-31T10:15:25.843Z,13.30
2022-10-31T10:20:39.931Z,12.65
2022-10-31T10:25:52.811Z,13.18
2022-10-31T10:31:03.896Z,13.55
2022-10-31T10:36:15.916Z,16.70
2022-10-31T10:41:27.444Z,13.50
2022-10-31T10:46:58.492Z,12.45
2022-10-31T10:52:27.056Z,11.60
2022-10-31T10:57:55.435Z,10.30
2022-10-31T11:03:01.071Z,14.55
2022-10-31T11:08:07.354Z,9.73
2022-10-31T11:13:27.740Z,11.93
2022-10-31T11:18:34.787Z,15.85
2022-10-31T11:23:39.770Z,9.30
2022-10-31T11:28:47.363Z,13.70
2022-10-31T11:34:02.083Z,10.93
2022-10-31T11:39:10.031Z,11.45
2022-10-31T11:44:22.507Z,9.63
2022-10-31T11:49:33.789Z,9.93
2022-10-31T11:54:43.665Z,14.25
2022-10-31T11:59:55.734Z,8.13
2022-10-31T12:05:06.848Z,11.68
2022-10-31T12:10:15.081Z,11.57
2022-10-31T12:15:48.322Z,11.48
2022-10-31T12:21:04.588Z,12.73
2022-10-31T12:26:20.322Z,11.65
2022-10-31T12:31:38.695Z,17.58
2022-10-31T12:36:54.282Z,11.40
2022-10-31T12:42:08.221Z,12.75
2022-10-31T12:47:48.010Z,10.38
2022-10-31T12:53:03.502Z,13.48
2022-10-31T12:58:13.491Z,11.13
2022-10-31T13:03:30.260Z,13.75
2022-10-31T13:08:49.698Z,13.75
2022-10-31T13:14:01.567Z,13.70
2022-10-31T13:19:18.310Z,8.50
2022-10-31T13:24:27.850Z,11.35
2022-10-31T13:29:37.343Z,8.93
2022-10-31T13:34:50.186Z,13.93
2022-10-31T13:40:10.977Z,9.82
2022-10-31T13:45:18.176Z,10.15
2022-10-31T13:50:29.896Z,13.93
2022-10-31T13:55:47.703Z,9.85
2022-10-31T14:01:03.603Z,12.85
2022-10-31T14:06:14.165Z,12.60
2022-10-31T14:11:31.608Z,8.98
2022-10-31T14:16:52.054Z,11.02
2022-10-31T14:22:02.409Z,12.53
2022-10-31T14:27:24.304Z,17.08
2022-10-31T14:32:30.474Z,12.47
2022-10-31T14:37:55.895Z,10.30
2022-10-31T14:43:18.440Z,11.83
2022-10-31T14:48:54.257Z,9.27
2022-10-31T14:54:04.166Z,11.13
2022-10-31T14:59:18.804Z,10.27
2022-10-31T15:04:29.071Z,15.60
2022-10-31T15:09:41.969Z,12.83
2022-10-31T15:14:49.215Z,12.90
2022-10-31T15:19:55.397Z,11.97
2022-10-31T15:25:05.252Z,14.23
2022-10-31T15:30:22.930Z,8.07
2022-10-31T15:35:32.099Z,13.23
2022-10-31T15:40:40.634Z,11.30
2022-10-31T15:45:49.042Z,10.77
2022-10-31T15:50:57.343Z,9.10
2022-10-31T15:56:09.573Z,14.67
2022-10-31T16:01:25.726Z,16.57
2022-10-31T16:06:30.973Z,23.50
2022-10-31T16:11:44.719Z,25.70
2022-10-31T16:16:53.453Z,39.50
2022-10-31T16:22:07.848Z,40.47
2022-10-31T16:27:26.671Z,26.20
2022-10-31T16:32:34.892Z,30.13
2022-10-31T16:37:45.816Z,22.83
2022-10-31T16:42:54.614Z,22.63
2022-10-31T16:48:08.143Z,20.97
2022-10-31T16:53:15.778Z,23.90
2022-10-31T16:58:27.555Z,33.90
2022-10-31T17:03:32.408Z,21.20
2022-10-31T17:08:37.199Z,27.90
2022-10-31T17:13:44.755Z,23.03
2022-10-31T17:18:49.678Z,22.10
2022-10-31T17:23:56.865Z,24.67
2022-10-31T17:29:05.179Z,22.97
2022-10-31T17:34:10.366Z,23.57
2022-10-31T17:39:15.483Z,22.93
2022-10-31T17:44:23.025Z,23.37
2022-10-31T17:49:28.276Z,18.57
2022-10-31T17:54:33.483Z,16.43
2022-10-31T17:59:41.151Z,24.33
2022-10-31T18:04:46.881Z,28.13
2022-10-31T18:09:52.292Z,25.07
2022-10-31T18:15:07.806Z,21.43
2022-10-31T18:20:14.158Z,24.80
2022-10-31T18:25:19.843Z,26.57
2022-10-31T18:30:29.289Z,22.77
2022-10-31T18:35:34.322Z,28.80
2022-10-31T18:40:39.506Z,28.17
2022-10-31T18:45:49.433Z,25.87
2022-10-31T18:51:00.401Z,23.83
2022-10-31T18:56:10.278Z,24.90
2022-10-31T19:01:19.446Z,25.93
2022-10-31T19:06:25.438Z,49.13
2022-10-31T19:11:31.474Z,36.60
2022-10-31T19:16:39.863Z,22.50
2022-10-31T19:21:45.418Z,25.03
2022-10-31T19:26:50.873Z,25.07
2022-10-31T19:32:01.195Z,23.07
2022-10-31T19:37:07.751Z,21.30
2022-10-31T19:42:14.441Z,27.73
2022-10-31T19:47:28.877Z,23.97
2022-10-31T19:52:38.674Z,22.90
2022-10-31T19:58:01.384Z,27.27
2022-10-31T20:03:10.281Z,24.37
2022-10-31T20:08:17.887Z,28.90
2022-10-31T20:13:23.316Z,29.03
2022-10-31T20:18:30.906Z,23.47
2022-10-31T20:23:37.219Z,28.83
2022-10-31T20:28:43.682Z,29.27
2022-10-31T20:33:52.592Z,25.73
2022-10-31T20:38:57.442Z,22.50
2022-10-31T20:44:02.246Z,22.50
2022-10-31T20:49:10.706Z,28.07
2022-10-31T20:54:18.546Z,28.83
2022-10-31T20:59:25.164Z,28.07
2022-10-31T21:04:33.139Z,34.37
2022-10-31T21:09:40.092Z,21.90
2022-10-31T21:14:44.873Z,23.07
2022-10-31T21:19:52.157Z,23.93
2022-10-31T21:24:57.179Z,22.57
2022-10-31T21:30:04.398Z,19.13
2022-10-31T21:35:13.610Z,17.63
2022-10-31T21:40:20.560Z,22.57
2022-10-31T21:45:25.833Z,24.00
2022-10-31T21:50:37.321Z,21.73
2022-10-31T21:55:44.182Z,22.17
2022-10-31T22:00:51.389Z,18.77
2022-10-31T22:06:00.632Z,20.20
2022-10-31T22:11:13.361Z,24.00
2022-10-31T22:16:19.799Z,25.67
2022-10-31T22:21:29.027Z,22.47
2022-10-31T22:26:34.096Z,25.43
2022-10-31T22:31:41.940Z,27.27
2022-10-31T22:36:49.646Z,23.10
2022-10-31T22:41:55.370Z,30.40
2022-10-31T22:47:00.138Z,36.30
2022-10-31T22:52:25.893Z,32.00
2022-10-31T22:57:34.404Z,38.60
2022-10-31T23:02:39.275Z,36.87
2022-10-31T23:07:46.610Z,41.73
2022-10-31T23:13:03.949Z,47.87
2022-10-31T23:18:18.809Z,51.77
2022-10-31T23:23:39.781Z,45.00
2022-10-31T23:28:44.563Z,49.27
2022-10-31T23:33:49.327Z,47.73
2022-10-31T23:38:56.734Z,54.77
2022-10-31T23:44:01.741Z,50.67
2022-10-31T23:49:06.502Z,47.47
2022-10-31T23:54:13.955Z,52.70
2022-10-31T23:59:18.724Z,49.10
